Time;durP1;ratioP1;P1;durP2;ratioP2;P2;SDS_P1;SDS_P2;PMS_P1;PMS_P2;Temp;Humidity;BMP_temperature;BMP_pressure;BME280_temperature;BME280_humidity;BME280_pressure;Samples;Min_cycle;Max_cycle;Signal;HPM_P1;HPM_P2
2023/05/01 00:01:24;;;;;;;24.23;22.53;;;9.60;99.90;;;;;;4934497;29;20963;-79
2023/05/01 00:03:51;;;;;;;26.17;23.67;;;9.50;99.90;;;;;;4934440;29;20531;-79
2023/05/01 00:06:17;;;;;;;25.90;23.70;;;9.50;99.90;;;;;;4934604;29;20899;-78
2023/05/01 00:08:44;;;;;;;25.67;23.70;;;9.50;99.90;;;;;;4934568;29;20464;-78
2023/05/01 00:11:11;;;;;;;23.37;21.70;;;9.60;99.90;;;;;;4934648;29;20450;-78
2023/05/01 00:13:38;;;;;;;22.57;21.07;;;9.50;99.90;;;;;;4934503;29;20541;-78
2023/05/01 00:16:09;;;;;;;23.37;21.70;;;9.40;99.90;;;;;;4934675;29;20503;-79
2023/05/01 00:18:36;;;;;;;22.77;20.67;;;9.30;99.90;;;;;;4934570;29;20498;-78
2023/05/01 00:21:03;;;;;;;24.77;22.60;;;9.30;99.90;;;;;;4934521;29;20457;-78
2023/05/01 00:23:29;;;;;;;25.67;23.80;;;9.30;99.90;;;;;;4934380;29;20457;-79
2023/05/01 00:25:56;;;;;;;25.10;23.20;;;9.30;99.90;;;;;;4934131;29;20850;-78
2023/05/01 00:28:23;;;;;;;26.10;24.07;;;9.40;99.90;;;;;;4934232;29;20484;-79
2023/05/01 00:30:50;;;;;;;24.10;22.23;;;9.40;99.90;;;;;;4934127;29;20453;-79
2023/05/01 00:33:18;;;;;;;24.87;23.03;;;9.30;99.90;;;;;;4934241;29;20536;-78
2023/05/01 00:35:45;;;;;;;24.13;22.13;;;9.30;99.90;;;;;;4934109;29;20492;-77
2023/05/01 00:38:12;;;;;;;24.07;22.30;;;9.30;99.90;;;;;;4933992;29;20797;-77
2023/05/01 00:40:42;;;;;;;24.77;22.70;;;9.30;99.90;;;;;;4933835;29;20873;-77
2023/05/01 00:43:09;;;;;;;22.70;21.10;;;9.20;99.90;;;;;;4933866;29;20453;-77
2023/05/01 00:45:36;;;;;;;20.80;19.40;;;9.20;99.90;;;;;;4933821;29;20489;-77
2023/05/01 00:48:04;;;;;;;21.77;20.20;;;9.20;99.90;;;;;;4934002;29;20461;-77
2023/05/01 00:50:32;;;;;;;23.03;21.27;;;9.30;99.90;;;;;;4933943;29;20548;-76
2023/05/01 00:52:59;;;;;;;22.90;21.33;;;9.30;99.90;;;;;;4933778;29;20461;-76
2023/05/01 00:55:26;;;;;;;22.97;21.47;;;9.20;99.90;;;;;;4933630;29;20458;-76
2023/05/01 00:57:55;;;;;;;22.97;21.27;;;9.20;99.90;;;;;;4933773;29;20453;-76
2023/05/01 01:00:23;;;;;;;21.67;20.17;;;9.30;99.90;;;;;;4933531;29;20457;-77
2023/05/01 01:02:50;;;;;;;22.20;20.63;;;9.20;99.90;;;;;;4933936;29;20468;-78
2023/05/01 01:05:18;;;;;;;23.00;21.27;;;9.30;99.90;;;;;;4932763;29;20497;-78
2023/05/01 01:07:53;;;;;;;23.67;21.87;;;9.20;99.90;;;;;;4933523;29;20449;-78
2023/05/01 01:10:30;;;;;;;24.70;22.17;;;9.20;99.90;;;;;;4933595;29;20973;-78
2023/05/01 01:13:04;;;;;;;22.60;21.00;;;9.20;99.90;;;;;;4933606;29;20460;-76
2023/05/01 01:15:35;;;;;;;24.70;22.73;;;9.20;99.90;;;;;;4933502;29;20467;-77
2023/05/01 01:18:09;;;;;;;21.60;20.20;;;9.20;99.90;;;;;;4933533;29;20461;-77
2023/05/01 01:20:41;;;;;;;22.70;21.07;;;9.20;99.90;;;;;;4933186;29;20461;-77
2023/05/01 01:23:34;;;;;;;23.70;22.00;;;9.20;99.90;;;;;;4933019;29;20806;-75
2023/05/01 01:26:37;;;;;;;23.03;21.30;;;9.20;99.90;;;;;;4933134;29;20493;-76
2023/05/01 01:29:37;;;;;;;22.97;21.37;;;9.30;99.90;;;;;;4918667;29;20511;-75
2023/05/01 01:32:17;;;;;;;24.77;23.00;;;9.20;99.90;;;;;;4930906;29;20824;-75
2023/05/01 01:34:50;;;;;;;22.10;19.90;;;9.20;99.90;;;;;;4933040;29;20464;-75
2023/05/01 01:37:22;;;;;;;22.47;21.00;;;9.20;99.90;;;;;;4933285;29;20829;-76
2023/05/01 01:39:53;;;;;;;23.73;21.87;;;9.30;99.90;;;;;;4933172;29;20481;-76
2023/05/01 01:42:25;;;;;;;23.53;21.87;;;9.40;99.90;;;;;;4932905;29;20485;-77
2023/05/01 01:44:55;;;;;;;23.93;21.83;;;9.40;99.90;;;;;;4932780;29;20485;-76
2023/05/01 01:47:27;;;;;;;24.57;22.67;;;9.50;99.90;;;;;;4932777;29;20456;-76
2023/05/01 01:49:55;;;;;;;24.93;22.93;;;9.50;99.90;;;;;;4932808;29;20452;-76
2023/05/01 01:52:24;;;;;;;22.30;20.70;;;9.50;99.90;;;;;;4932452;29;20461;-76
2023/05/01 01:54:54;;;;;;;25.10;23.20;;;9.40;99.90;;;;;;4932776;29;20457;-76
2023/05/01 01:57:23;;;;;;;23.50;21.80;;;9.50;99.90;;;;;;4932805;29;20459;-76
2023/05/01 01:59:51;;;;;;;24.80;23.10;;;9.40;99.90;;;;;;4932602;29;20453;-75
2023/05/01 02:02:20;;;;;;;24.63;22.70;;;9.40;99.90;;;;;;4932738;29;20472;-74
2023/05/01 02:04:48;;;;;;;23.80;22.10;;;9.40;99.90;;;;;;4932851;29;20493;-75
2023/05/01 02:07:18;;;;;;;24.43;22.67;;;9.50;99.90;;;;;;4932630;29;20593;-75
2023/05/01 02:09:45;;;;;;;23.63;22.03;;;9.50;99.90;;;;;;4932613;29;20449;-75
2023/05/01 02:12:14;;;;;;;23.80;22.20;;;9.50;99.90;;;;;;4932361;29;20461;-75
2023/05/01 02:14:42;;;;;;;24.63;22.93;;;9.50;99.90;;;;;;4932514;29;20520;-75
2023/05/01 02:17:10;;;;;;;24.13;22.53;;;9.60;99.90;;;;;;4932136;29;20460;-76
2023/05/01 02:19:39;;;;;;;24.83;23.23;;;9.60;99.90;;;;;;4932632;29;20458;-75
2023/05/01 02:22:07;;;;;;;25.10;23.33;;;9.60;99.90;;;;;;4932468;29;20457;-77
2023/05/01 02:24:37;;;;;;;24.20;22.70;;;9.50;99.90;;;;;;4932666;29;20874;-76
2023/05/01 02:27:11;;;;;;;24.17;22.57;;;9.60;99.90;;;;;;4932482;29;20500;-76
2023/05/01 02:29:37;;;;;;;24.30;22.43;;;9.60;99.90;;;;;;4932101;29;20453;-76
2023/05/01 02:32:04;;;;;;;23.33;21.57;;;9.60;99.90;;;;;;4932263;29;20472;-76
2023/05/01 02:34:34;;;;;;;25.80;24.10;;;9.70;99.90;;;;;;4932460;29;20454;-75
2023/05/01 02:37:01;;;;;;;24.37;22.57;;;9.70;99.90;;;;;;4932553;29;20449;-75
2023/05/01 02:39:28;;;;;;;24.90;22.80;;;9.80;99.90;;;;;;4931845;29;20498;-76
2023/05/01 02:42:02;;;;;;;23.87;22.03;;;9.90;99.90;;;;;;4931773;29;20477;-76
2023/05/01 02:44:30;;;;;;;25.23;23.43;;;9.90;99.90;;;;;;4932249;29;20826;-76
2023/05/01 02:47:00;;;;;;;22.03;20.53;;;10.00;99.90;;;;;;4931724;29;20520;-77
2023/05/01 02:49:27;;;;;;;23.90;22.20;;;10.10;99.90;;;;;;4930990;29;20938;-75
2023/05/01 02:51:54;;;;;;;22.93;21.27;;;10.10;99.90;;;;;;4931025;29;20516;-76
2023/05/01 02:54:21;;;;;;;22.63;20.97;;;10.10;99.90;;;;;;4931171;29;20468;-75
2023/05/01 02:56:48;;;;;;;22.67;21.03;;;10.10;99.90;;;;;;4931305;29;20450;-76
2023/05/01 02:59:16;;;;;;;24.40;22.50;;;10.10;99.90;;;;;;4930935;29;20453;-76
2023/05/01 03:01:42;;;;;;;22.93;21.07;;;10.10;99.90;;;;;;4930740;29;20450;-76
2023/05/01 03:04:09;;;;;;;22.63;21.03;;;10.20;99.90;;;;;;4931000;29;20825;-76
2023/05/01 03:06:36;;;;;;;23.90;22.30;;;10.20;99.90;;;;;;4930823;29;20498;-76
2023/05/01 03:09:03;;;;;;;22.97;21.47;;;10.20;99.90;;;;;;4930901;29;20459;-76
2023/05/01 03:11:29;;;;;;;24.70;23.03;;;10.30;99.90;;;;;;4931007;29;20460;-76
2023/05/01 03:13:56;;;;;;;20.77;19.27;;;10.20;99.90;;;;;;4931149;29;20464;-76
2023/05/01 03:16:24;;;;;;;22.70;21.20;;;10.30;99.90;;;;;;4931108;29;20863;-76
2023/05/01 03:18:51;;;;;;;23.70;22.10;;;10.30;99.90;;;;;;4930937;29;20508;-75
2023/05/01 03:21:17;;;;;;;23.37;21.87;;;10.30;99.90;;;;;;4931193;29;20832;-76
2023/05/01 03:23:44;;;;;;;22.40;20.80;;;10.30;99.90;;;;;;4931104;29;20471;-76
2023/05/01 03:26:11;;;;;;;21.87;20.17;;;10.30;99.90;;;;;;4930754;29;20591;-76
2023/05/01 03:28:38;;;;;;;21.67;20.37;;;10.30;99.90;;;;;;4931472;29;20962;-82
2023/05/01 03:31:04;;;;;;;23.90;22.50;;;10.30;99.90;;;;;;4934967;29;20474;-76
2023/05/01 03:33:32;;;;;;;22.30;20.80;;;10.30;99.90;;;;;;4934314;29;20480;-75
2023/05/01 03:36:00;;;;;;;22.17;20.73;;;10.40;99.90;;;;;;4934489;29;20475;-75
2023/05/01 03:38:27;;;;;;;22.13;20.53;;;10.30;99.90;;;;;;4934294;29;20490;-75
2023/05/01 03:40:54;;;;;;;21.93;20.63;;;10.30;99.90;;;;;;4934157;29;20496;-75
2023/05/01 03:43:20;;;;;;;22.13;20.73;;;10.30;99.90;;;;;;4934577;29;20615;-76
2023/05/01 03:45:47;;;;;;;22.60;21.17;;;10.30;99.90;;;;;;4934434;29;20493;-75
2023/05/01 03:48:14;;;;;;;22.90;21.40;;;10.20;99.90;;;;;;4934467;29;20540;-75
2023/05/01 03:50:42;;;;;;;23.13;21.50;;;10.20;99.90;;;;;;4933977;29;20501;-75
2023/05/01 03:53:08;;;;;;;24.50;22.90;;;10.20;99.90;;;;;;4933984;29;20991;-75
2023/05/01 03:55:35;;;;;;;22.10;20.57;;;10.20;99.90;;;;;;4934172;29;20560;-75
2023/05/01 03:58:02;;;;;;;21.53;20.23;;;10.30;99.90;;;;;;4934490;29;20460;-76
2023/05/01 04:00:28;;;;;;;21.23;19.83;;;10.30;99.90;;;;;;4933928;29;20498;-76
2023/05/01 04:02:56;;;;;;;22.20;20.70;;;10.30;99.90;;;;;;4933896;29;20460;-76
2023/05/01 04:05:22;;;;;;;21.33;20.03;;;10.30;99.90;;;;;;4933760;29;20976;-75
2023/05/01 04:07:51;;;;;;;21.40;19.80;;;10.20;99.90;;;;;;4934176;29;20462;-78
2023/05/01 04:10:17;;;;;;;22.13;20.73;;;10.30;99.90;;;;;;4934230;29;20466;-77
2023/05/01 04:12:44;;;;;;;21.00;19.60;;;10.30;99.90;;;;;;4934216;29;20612;-77
2023/05/01 04:15:11;;;;;;;21.60;20.30;;;10.40;99.90;;;;;;4933792;29;20461;-76
2023/05/01 04:17:39;;;;;;;21.80;20.40;;;10.40;99.90;;;;;;4933788;29;20461;-75
2023/05/01 04:20:07;;;;;;;22.23;20.90;;;10.40;99.90;;;;;;4933679;29;20461;-75
2023/05/01 04:22:34;;;;;;;22.67;21.27;;;10.40;99.90;;;;;;4933882;29;20460;-75
2023/05/01 04:25:02;;;;;;;22.57;21.00;;;10.50;99.90;;;;;;4933821;29;20450;-75
2023/05/01 04:27:28;;;;;;;22.37;20.73;;;10.50;99.90;;;;;;4933460;29;20504;-74
2023/05/01 04:29:55;;;;;;;21.37;19.87;;;10.50;99.90;;;;;;4933550;29;20464;-74
2023/05/01 04:32:22;;;;;;;21.70;20.27;;;10.60;99.90;;;;;;4933687;29;20544;-74
2023/05/01 04:34:49;;;;;;;22.03;20.43;;;10.70;99.90;;;;;;4933636;29;20464;-75
2023/05/01 04:37:16;;;;;;;22.50;20.90;;;10.70;99.90;;;;;;4933488;29;20877;-75
2023/05/01 04:39:43;;;;;;;22.03;20.53;;;10.80;99.90;;;;;;4933122;29;20488;-74
2023/05/01 04:42:11;;;;;;;21.27;20.07;;;10.80;99.90;;;;;;4932884;29;20788;-74
2023/05/01 04:44:38;;;;;;;21.00;19.70;;;10.80;99.90;;;;;;4933549;29;20488;-74
2023/05/01 04:47:05;;;;;;;21.17;19.70;;;10.80;99.90;;;;;;4933175;29;20512;-74
2023/05/01 04:49:31;;;;;;;19.90;18.57;;;10.80;99.90;;;;;;4933049;29;20461;-74
2023/05/01 04:51:58;;;;;;;19.40;18.20;;;10.90;99.90;;;;;;4932859;29;20452;-76
2023/05/01 04:54:25;;;;;;;21.30;20.10;;;10.90;99.90;;;;;;4933076;29;20468;-75
2023/05/01 04:56:51;;;;;;;21.07;19.57;;;11.00;99.90;;;;;;4933015;29;20791;-75
2023/05/01 04:59:19;;;;;;;20.20;19.00;;;11.10;99.90;;;;;;4931711;29;20566;-74
2023/05/01 05:01:46;;;;;;;21.73;20.30;;;11.20;99.90;;;;;;4926487;29;20489;-75
2023/05/01 05:04:13;;;;;;;19.47;18.27;;;11.20;99.90;;;;;;4931217;29;20459;-74
2023/05/01 05:06:39;;;;;;;21.60;20.30;;;11.30;99.90;;;;;;4931037;29;20603;-75
2023/05/01 05:09:06;;;;;;;21.47;20.17;;;11.20;99.90;;;;;;4931272;29;20461;-76
2023/05/01 05:11:33;;;;;;;19.80;18.50;;;11.20;99.90;;;;;;4931630;29;20457;-75
2023/05/01 05:13:59;;;;;;;19.87;18.67;;;11.30;99.90;;;;;;4931313;29;20461;-76
2023/05/01 05:16:27;;;;;;;21.23;19.90;;;11.40;99.90;;;;;;4931179;29;20468;-76
2023/05/01 05:18:56;;;;;;;19.73;18.53;;;11.40;99.90;;;;;;4928654;29;20481;-76
2023/05/01 05:21:23;;;;;;;20.67;19.37;;;11.50;99.90;;;;;;4931034;29;20446;-76
2023/05/01 05:23:49;;;;;;;19.40;18.10;;;11.50;99.90;;;;;;4931250;29;20441;-77
2023/05/01 05:26:16;;;;;;;20.20;18.90;;;11.60;99.90;;;;;;4931068;29;20481;-77
2023/05/01 05:28:44;;;;;;;20.90;19.50;;;11.60;99.90;;;;;;4930990;29;20948;-77
2023/05/01 05:31:10;;;;;;;21.70;20.30;;;11.60;99.90;;;;;;4930545;29;20563;-76
2023/05/01 05:33:38;;;;;;;22.43;20.83;;;11.60;99.90;;;;;;4930923;29;20939;-77
2023/05/01 05:36:05;;;;;;;19.87;18.67;;;11.60;99.90;;;;;;4930825;29;20457;-77
2023/05/01 05:38:32;;;;;;;19.53;18.33;;;11.60;99.90;;;;;;4931025;29;20453;-76
2023/05/01 05:40:59;;;;;;;20.20;19.03;;;11.70;99.90;;;;;;4930205;29;20506;-76
2023/05/01 05:43:27;;;;;;;20.80;19.70;;;11.80;99.90;;;;;;4930548;29;20452;-76
2023/05/01 05:45:57;;;;;;;18.50;17.47;;;11.80;99.90;;;;;;4930597;29;21066;-75
2023/05/01 05:48:23;;;;;;;21.40;20.10;;;11.80;99.90;;;;;;4930508;29;20533;-76
2023/05/01 05:50:51;;;;;;;22.83;21.43;;;11.80;99.90;;;;;;4930341;29;20469;-75
2023/05/01 05:53:18;;;;;;;23.03;21.63;;;11.70;99.90;;;;;;4930441;29;20469;-75
2023/05/01 05:55:46;;;;;;;21.67;20.17;;;11.60;99.90;;;;;;4930525;29;20450;-75
2023/05/01 05:58:18;;;;;;;21.80;20.47;;;11.60;99.90;;;;;;4930343;29;20460;-76
2023/05/01 06:00:46;;;;;;;22.90;21.50;;;11.60;99.90;;;;;;4930667;29;20476;-75
2023/05/01 06:03:13;;;;;;;22.80;20.97;;;11.60;99.90;;;;;;4925365;29;20477;-76
2023/05/01 06:05:39;;;;;;;22.10;20.60;;;11.60;99.90;;;;;;4930994;29;20446;-76
2023/05/01 06:08:09;;;;;;;20.17;18.97;;;11.60;99.90;;;;;;4930533;29;20568;-76
2023/05/01 06:10:35;;;;;;;22.03;20.63;;;11.60;99.90;;;;;;4928483;29;20879;-77
2023/05/01 06:13:02;;;;;;;22.87;21.50;;;11.60;99.90;;;;;;4930652;29;20521;-77
2023/05/01 06:15:29;;;;;;;21.90;20.67;;;11.50;99.90;;;;;;4930378;29;20492;-76
2023/05/01 06:17:56;;;;;;;21.83;20.33;;;11.60;99.90;;;;;;4930189;29;20453;-77
2023/05/01 06:20:23;;;;;;;21.97;20.33;;;11.50;99.90;;;;;;4930469;29;20453;-75
2023/05/01 06:22:50;;;;;;;21.73;20.20;;;11.40;99.90;;;;;;4930266;29;20457;-76
2023/05/01 06:25:19;;;;;;;21.77;20.10;;;11.40;99.90;;;;;;4930676;29;20461;-77
2023/05/01 06:27:45;;;;;;;21.20;19.67;;;11.50;99.90;;;;;;4928408;29;20504;-75
2023/05/01 06:30:12;;;;;;;22.63;21.03;;;11.50;99.90;;;;;;4928982;29;20450;-77
2023/05/01 06:32:40;;;;;;;20.90;19.30;;;11.50;99.90;;;;;;4930772;29;20464;-76
2023/05/01 06:35:08;;;;;;;20.60;19.30;;;11.50;99.90;;;;;;4931076;29;20454;-77
2023/05/01 06:37:35;;;;;;;21.13;19.53;;;11.60;99.90;;;;;;4931682;29;20461;-77
2023/05/01 06:40:01;;;;;;;20.87;19.33;;;11.70;99.90;;;;;;4931104;29;20568;-77
2023/05/01 06:42:29;;;;;;;22.67;21.10;;;12.10;99.90;;;;;;4932446;29;20503;-78
2023/05/01 06:44:56;;;;;;;20.93;19.63;;;12.30;99.90;;;;;;4934448;29;20840;-78
2023/05/01 06:47:23;;;;;;;21.33;19.73;;;12.30;99.90;;;;;;4930074;29;20515;-78
2023/05/01 06:49:50;;;;;;;21.40;19.90;;;12.40;99.90;;;;;;4932511;29;20568;-78
2023/05/01 06:52:16;;;;;;;21.37;19.97;;;12.30;99.90;;;;;;4930495;29;20528;-78
2023/05/01 06:54:43;;;;;;;20.10;18.80;;;12.20;99.90;;;;;;4930790;29;20861;-79
2023/05/01 06:57:10;;;;;;;22.40;20.70;;;12.20;99.90;;;;;;4930493;29;20844;-77
2023/05/01 06:59:39;;;;;;;22.53;21.03;;;12.30;99.90;;;;;;4932057;29;20457;-77
2023/05/01 07:02:05;;;;;;;21.40;19.97;;;12.20;99.90;;;;;;4930723;29;20818;-77
2023/05/01 07:04:32;;;;;;;22.43;20.70;;;12.30;99.90;;;;;;4930289;29;20461;-77
2023/05/01 07:06:59;;;;;;;20.93;19.53;;;12.20;99.90;;;;;;4933925;29;20500;-78
2023/05/01 07:09:26;;;;;;;23.03;21.53;;;12.20;99.90;;;;;;4934049;29;20572;-77
2023/05/01 07:11:55;;;;;;;22.60;20.97;;;12.10;99.90;;;;;;4934281;29;20472;-76
2023/05/01 07:14:22;;;;;;;26.03;24.33;;;12.10;99.90;;;;;;4934240;29;20948;-75
2023/05/01 07:16:50;;;;;;;21.77;20.43;;;12.00;99.90;;;;;;4951893;29;20444;-77
2023/05/01 07:19:17;;;;;;;20.77;19.50;;;11.90;99.90;;;;;;4937216;29;20465;-76
2023/05/01 07:21:44;;;;;;;19.63;18.40;;;11.90;99.90;;;;;;4933985;29;20461;-76
2023/05/01 07:24:11;;;;;;;21.17;19.80;;;11.90;99.90;;;;;;4934046;29;20818;-75
2023/05/01 07:26:38;;;;;;;20.80;19.33;;;12.00;99.90;;;;;;4933871;29;20463;-76
2023/05/01 07:29:05;;;;;;;22.07;20.70;;;11.90;99.90;;;;;;4934168;29;20540;-76
2023/05/01 07:31:32;;;;;;;21.63;20.43;;;12.00;99.90;;;;;;4934453;29;20457;-75
2023/05/01 07:34:00;;;;;;;19.67;18.50;;;12.10;99.90;;;;;;4933546;29;20951;-75
2023/05/01 07:36:27;;;;;;;22.23;20.70;;;12.20;99.90;;;;;;4933781;29;20456;-75
2023/05/01 07:38:54;;;;;;;20.53;18.97;;;12.20;99.90;;;;;;4933945;29;20548;-75
2023/05/01 07:41:21;;;;;;;20.50;19.00;;;12.20;99.90;;;;;;4934062;29;20496;-76
2023/05/01 07:43:48;;;;;;;19.33;18.10;;;12.30;99.90;;;;;;4934409;29;20457;-76
2023/05/01 07:46:15;;;;;;;19.10;18.00;;;12.50;99.90;;;;;;4932044;29;20446;-76
2023/05/01 07:48:43;;;;;;;19.60;18.40;;;12.70;99.90;;;;;;4934050;29;20500;-76
2023/05/01 07:51:11;;;;;;;18.83;17.63;;;12.90;99.90;;;;;;4933911;29;20581;-77
2023/05/01 07:53:39;;;;;;;18.30;17.20;;;13.20;99.90;;;;;;4928202;29;20493;-78
2023/05/01 07:56:07;;;;;;;16.60;15.43;;;13.50;99.90;;;;;;4933975;29;20525;-77
2023/05/01 07:58:34;;;;;;;17.40;16.37;;;13.80;99.90;;;;;;4934247;29;20908;-77
2023/05/01 08:01:01;;;;;;;18.50;17.40;;;14.00;99.90;;;;;;4933837;29;20999;-77
2023/05/01 08:03:28;;;;;;;16.67;15.77;;;14.00;99.90;;;;;;4933211;29;20513;-78
2023/05/01 08:05:55;;;;;;;17.70;16.30;;;13.90;99.90;;;;;;4933406;29;20489;-76
2023/05/01 08:08:23;;;;;;;19.03;17.73;;;13.90;99.90;;;;;;4932688;29;20501;-76
2023/05/01 08:10:51;;;;;;;18.27;17.17;;;13.90;99.90;;;;;;4918207;29;20476;-76
2023/05/01 08:13:18;;;;;;;19.43;18.23;;;13.90;99.90;;;;;;4933986;29;20461;-75
2023/05/01 08:15:45;;;;;;;17.70;16.57;;;13.90;99.90;;;;;;4931960;29;20508;-74
2023/05/01 08:18:18;;;;;;;20.40;19.10;;;14.10;99.90;;;;;;4931865;29;20553;-76
2023/05/01 08:20:45;;;;;;;18.10;17.00;;;14.00;99.90;;;;;;4932283;29;20453;-76
2023/05/01 08:23:11;;;;;;;19.27;18.07;;;14.00;99.90;;;;;;4932079;29;20461;-76
2023/05/01 08:25:39;;;;;;;19.13;17.83;;;14.20;99.90;;;;;;4932738;29;20446;-77
2023/05/01 08:28:06;;;;;;;19.43;18.13;;;14.50;99.90;;;;;;4934496;29;20489;-76
2023/05/01 08:30:33;;;;;;;18.73;17.67;;;14.40;99.90;;;;;;4932712;29;20476;-77
2023/05/01 08:32:59;;;;;;;19.93;18.70;;;14.20;99.90;;;;;;4932611;29;20457;-78
2023/05/01 08:35:26;;;;;;;19.57;18.37;;;14.10;99.90;;;;;;4932460;29;20453;-77
2023/05/01 08:37:53;;;;;;;16.97;15.97;;;14.10;99.90;;;;;;4933386;29;20483;-76
2023/05/01 08:40:20;;;;;;;18.20;17.10;;;14.20;99.90;;;;;;4933232;29;20473;-76
2023/05/01 08:42:48;;;;;;;19.00;17.70;;;14.20;99.90;;;;;;4933691;29;20464;-75
2023/05/01 08:45:18;;;;;;;16.90;15.90;;;14.20;99.90;;;;;;4933539;29;20824;-75
2023/05/01 08:47:46;;;;;;;19.03;17.80;;;14.30;99.90;;;;;;4933252;29;20583;-75
2023/05/01 08:50:14;;;;;;;16.93;15.80;;;14.50;99.90;;;;;;4932907;29;20587;-74
2023/05/01 08:52:42;;;;;;;19.10;17.80;;;14.90;99.90;;;;;;4933101;29;20484;-75
2023/05/01 08:55:13;;;;;;;18.13;17.03;;;15.20;99.90;;;;;;4933338;29;21182;-75
2023/05/01 08:57:44;;;;;;;17.00;15.90;;;15.50;99.90;;;;;;4928087;29;20501;-75
2023/05/01 09:00:17;;;;;;;16.50;15.50;;;15.70;99.90;;;;;;4932902;29;20528;-76
2023/05/01 09:02:45;;;;;;;18.20;17.10;;;16.00;99.90;;;;;;4933175;29;20545;-77
2023/05/01 09:05:13;;;;;;;17.83;16.73;;;16.10;99.90;;;;;;4932898;29;20457;-74
2023/05/01 09:07:42;;;;;;;17.57;16.37;;;16.30;99.90;;;;;;4932719;29;20485;-74
2023/05/01 09:10:09;;;;;;;18.10;17.10;;;16.60;99.90;;;;;;4932986;29;20457;-75
2023/05/01 09:12:37;;;;;;;18.00;16.73;;;16.70;99.90;;;;;;4932670;29;20549;-76
2023/05/01 09:15:06;;;;;;;17.70;16.60;;;17.10;99.90;;;;;;4932887;29;20468;-76
2023/05/01 09:17:35;;;;;;;18.17;17.00;;;17.40;99.90;;;;;;4932873;29;20560;-75
2023/05/01 09:20:04;;;;;;;17.77;16.83;;;17.60;99.90;;;;;;4932911;29;20568;-74
2023/05/01 09:22:32;;;;;;;17.00;16.00;;;18.10;99.90;;;;;;4933076;29;20474;-76
2023/05/01 09:24:59;;;;;;;17.80;16.70;;;18.40;99.90;;;;;;4932972;29;20464;-76
2023/05/01 09:27:27;;;;;;;19.07;17.97;;;18.70;99.90;;;;;;4931749;29;20545;-74
2023/05/01 09:29:54;;;;;;;17.80;16.60;;;18.70;99.90;;;;;;4932566;29;20707;-75
2023/05/01 09:32:26;;;;;;;17.23;16.30;;;18.50;99.90;;;;;;4932467;29;20952;-74
2023/05/01 09:34:56;;;;;;;18.53;17.13;;;18.60;99.90;;;;;;4932487;29;20484;-75
2023/05/01 09:37:27;;;;;;;17.53;16.53;;;18.90;99.90;;;;;;4932615;29;20549;-74
2023/05/01 09:40:07;;;;;;;16.23;15.13;;;19.20;99.90;;;;;;4932202;29;20580;-75
2023/05/01 09:42:36;;;;;;;17.50;16.40;;;19.30;99.40;;;;;;4932625;29;20475;-75
2023/05/01 09:45:04;;;;;;;16.80;15.90;;;19.40;99.50;;;;;;4932933;29;20445;-75
2023/05/01 10:21:15;;;;;;;16.63;15.83;;;24.60;83.20;;;;;;5869357;23;20622;-74
2023/05/01 10:23:42;;;;;;;16.10;15.40;;;24.50;82.60;;;;;;4949002;29;20461;-75
2023/05/01 10:26:13;;;;;;;17.07;16.00;;;24.10;83.90;;;;;;4951294;29;20452;-75
2023/05/01 10:28:40;;;;;;;16.20;15.30;;;24.00;82.40;;;;;;4951379;29;20484;-75
2023/05/01 10:31:08;;;;;;;16.23;15.43;;;22.90;85.20;;;;;;4951180;29;20457;-75
2023/05/01 10:33:35;;;;;;;16.73;15.80;;;22.40;86.30;;;;;;4951207;29;20452;-75
2023/05/01 10:36:03;;;;;;;15.90;15.00;;;22.30;86.90;;;;;;4950838;29;20457;-75
2023/05/01 10:38:34;;;;;;;16.37;15.33;;;22.30;88.00;;;;;;4954306;28;20463;-74
2023/05/01 10:41:01;;;;;;;15.27;14.30;;;22.50;86.90;;;;;;4957462;28;20526;-75
2023/05/01 10:43:29;;;;;;;16.40;15.50;;;22.40;87.80;;;;;;4957367;29;20467;-74
2023/05/01 10:46:28;;;;;;;16.27;15.47;;;22.00;87.60;;;;;;4957056;29;20453;-75
2023/05/01 10:48:57;;;;;;;15.50;14.77;;;22.10;86.80;;;;;;4957401;29;20492;-76
2023/05/01 10:51:26;;;;;;;16.57;15.67;;;22.50;86.20;;;;;;4957445;28;20460;-76
2023/05/01 10:54:28;;;;;;;16.43;15.63;;;22.60;85.70;;;;;;4957588;29;20456;-75
2023/05/01 10:56:57;;;;;;;16.90;16.00;;;23.20;85.20;;;;;;4957165;29;20443;-76
2023/05/01 10:59:24;;;;;;;16.40;15.20;;;23.20;85.50;;;;;;4957213;29;20452;-75
2023/05/01 11:01:51;;;;;;;17.27;16.23;;;23.20;84.20;;;;;;4957329;29;20459;-76
2023/05/01 11:04:52;;;;;;;16.50;15.60;;;22.70;84.30;;;;;;4957198;29;20547;-74
2023/05/01 11:07:20;;;;;;;15.73;14.93;;;22.90;84.40;;;;;;4957141;28;20962;-75
2023/05/01 11:09:53;;;;;;;15.83;14.83;;;23.10;82.30;;;;;;4957094;29;20776;-75
2023/05/01 11:12:53;;;;;;;15.30;14.57;;;23.20;82.90;;;;;;4957449;29;20813;-75
2023/05/01 11:15:27;;;;;;;14.70;13.90;;;22.70;83.10;;;;;;4957399;28;20876;-75
2023/05/01 11:17:54;;;;;;;14.53;13.73;;;22.90;84.70;;;;;;4956824;29;20443;-75
2023/05/01 11:20:49;;;;;;;15.50;14.60;;;22.80;82.80;;;;;;4956855;28;20476;-75
2023/05/01 11:23:24;;;;;;;15.20;14.50;;;22.10;84.20;;;;;;4956782;29;20946;-75
2023/05/01 11:26:02;;;;;;;16.17;15.37;;;21.90;86.30;;;;;;4956794;29;20944;-75
2023/05/01 11:28:31;;;;;;;17.20;15.90;;;21.60;86.60;;;;;;4956422;29;20583;-74
2023/05/01 11:30:59;;;;;;;16.00;15.20;;;21.90;87.00;;;;;;4956520;28;20456;-75
2023/05/01 11:33:26;;;;;;;16.37;15.57;;;21.80;86.90;;;;;;4956850;29;20464;-75
2023/05/01 11:36:03;;;;;;;15.70;14.73;;;22.00;85.90;;;;;;4956656;28;20468;-75
2023/05/01 11:38:30;;;;;;;15.80;15.00;;;21.40;87.30;;;;;;4955765;29;20882;-73
2023/05/01 11:41:03;;;;;;;17.87;16.80;;;21.30;88.10;;;;;;4937372;29;20484;-74
2023/05/01 11:43:31;;;;;;;17.30;16.27;;;21.40;88.50;;;;;;4937367;29;20488;-74
2023/05/01 11:46:02;;;;;;;16.70;15.80;;;21.90;87.30;;;;;;4937476;29;20452;-75
2023/05/01 11:48:30;;;;;;;16.37;15.30;;;21.90;84.90;;;;;;4937683;29;20493;-73
2023/05/01 11:50:57;;;;;;;15.33;14.50;;;21.40;86.10;;;;;;4933714;29;20485;-74
2023/05/01 11:53:24;;;;;;;16.10;15.23;;;21.30;88.20;;;;;;4934575;29;20566;-75
2023/05/01 11:55:50;;;;;;;17.57;16.20;;;21.50;87.30;;;;;;4934790;29;20461;-75
2023/05/01 11:58:31;;;;;;;17.33;16.43;;;21.60;87.50;;;;;;4934507;29;20536;-76
2023/05/01 12:00:58;;;;;;;17.73;16.63;;;21.70;87.80;;;;;;4934252;29;20543;-75
2023/05/01 12:03:25;;;;;;;16.30;15.17;;;21.20;89.80;;;;;;4937899;29;20449;-74
2023/05/01 12:05:52;;;;;;;17.33;16.53;;;20.50;90.60;;;;;;4941491;29;20460;-75
2023/05/01 12:08:21;;;;;;;16.40;15.60;;;20.20;91.90;;;;;;4943030;29;20919;-76
2023/05/01 12:10:50;;;;;;;17.63;16.63;;;20.60;92.30;;;;;;4942617;29;20449;-75
2023/05/01 12:13:19;;;;;;;18.80;17.90;;;21.00;91.70;;;;;;4941310;29;20453;-75
2023/05/01 12:15:47;;;;;;;17.30;15.97;;;21.40;90.30;;;;;;4942002;29;20444;-74
2023/05/01 12:18:15;;;;;;;17.60;16.70;;;21.40;90.10;;;;;;4943124;29;20440;-76
2023/05/01 12:20:44;;;;;;;16.70;15.70;;;21.10;90.00;;;;;;4941754;28;20598;-75
2023/05/01 12:23:12;;;;;;;16.57;15.57;;;21.50;90.10;;;;;;4951774;29;20488;-76
2023/05/01 12:25:41;;;;;;;16.87;15.97;;;21.30;89.50;;;;;;4952157;29;20567;-76
2023/05/01 12:28:10;;;;;;;16.17;15.37;;;21.00;90.60;;;;;;4952119;29;20950;-76
2023/05/01 12:30:39;;;;;;;17.40;16.50;;;21.20;90.60;;;;;;4952000;29;20464;-76
2023/05/01 12:33:10;;;;;;;18.10;17.00;;;20.90;90.30;;;;;;4952078;29;20464;-74
2023/05/01 12:35:37;;;;;;;17.50;16.30;;;21.20;90.30;;;;;;4951955;29;20798;-75
2023/05/01 12:38:11;;;;;;;17.17;16.23;;;21.10;90.30;;;;;;4952184;29;20467;-75
2023/05/01 12:40:38;;;;;;;17.30;16.10;;;21.30;89.70;;;;;;4951985;29;20547;-75
2023/05/01 12:43:05;;;;;;;17.10;16.20;;;21.30;90.60;;;;;;4952075;29;20457;-75
2023/05/01 12:45:39;;;;;;;15.40;14.70;;;21.70;89.80;;;;;;4951892;29;20467;-76
2023/05/01 12:48:11;;;;;;;17.07;16.17;;;22.10;88.50;;;;;;4951808;29;20540;-76
2023/05/01 12:50:38;;;;;;;17.20;16.30;;;22.50;86.60;;;;;;4951774;29;20467;-75
2023/05/01 12:53:06;;;;;;;17.00;16.00;;;22.80;85.00;;;;;;4952177;29;20452;-75
2023/05/01 12:55:45;;;;;;;18.23;17.20;;;22.50;84.20;;;;;;4951539;29;20511;-75
2023/05/01 12:58:12;;;;;;;16.97;16.07;;;22.10;85.20;;;;;;4951625;29;20470;-74
2023/05/01 13:00:45;;;;;;;16.20;15.40;;;22.60;85.10;;;;;;4950999;28;20460;-74
2023/05/01 13:03:12;;;;;;;16.87;15.97;;;22.80;84.30;;;;;;4951807;29;20797;-74
2023/05/01 13:05:53;;;;;;;18.50;17.50;;;22.90;83.30;;;;;;4952488;29;20453;-74
2023/05/01 13:08:28;;;;;;;17.17;16.27;;;23.00;83.80;;;;;;4952342;29;20503;-74
2023/05/01 13:10:55;;;;;;;17.40;16.50;;;23.10;82.60;;;;;;4952317;29;20482;-74